createdAt,value
2017-12-25T00:00:27.876Z,2.60
2017-12-25T00:02:55.084Z,2.65
2017-12-25T00:05:22.299Z,3.08
2017-12-25T00:07:49.516Z,2.90
2017-12-25T00:10:16.740Z,2.15
2017-12-25T00:12:43.949Z,2.70
2017-12-25T00:15:11.173Z,2.80
2017-12-25T00:17:38.385Z,2.95
2017-12-25T00:20:05.605Z,2.55
2017-12-25T00:22:32.831Z,2.70
2017-12-25T00:25:00.050Z,2.80
2017-12-25T00:27:27.251Z,2.55
2017-12-25T00:29:54.479Z,2.50
2017-12-25T00:32:21.699Z,2.60
2017-12-25T00:34:48.916Z,2.40
2017-12-25T00:37:16.131Z,2.60
2017-12-25T00:39:43.355Z,2.30
2017-12-25T00:42:10.569Z,2.60
2017-12-25T00:44:37.792Z,2.87
2017-12-25T00:47:05.008Z,2.25
2017-12-25T00:49:32.223Z,2.90
2017-12-25T00:51:59.451Z,2.00
2017-12-25T00:54:26.668Z,2.40
2017-12-25T00:56:53.880Z,2.67
2017-12-25T00:59:21.100Z,2.47
2017-12-25T01:01:48.308Z,2.62
2017-12-25T01:04:15.529Z,2.20
2017-12-25T01:06:42.735Z,2.30
2017-12-25T01:09:09.963Z,1.95
2017-12-25T01:11:38.705Z,3.28
2017-12-25T01:14:05.930Z,2.33
2017-12-25T01:16:33.140Z,2.20
2017-12-25T01:19:00.356Z,3.15
2017-12-25T01:21:27.566Z,4.62
2017-12-25T01:23:54.785Z,3.62
2017-12-25T01:26:22.013Z,3.10
2017-12-25T01:28:49.220Z,2.87
2017-12-25T01:31:16.440Z,2.85
2017-12-25T01:33:43.653Z,2.55
2017-12-25T01:36:10.873Z,2.65
2017-12-25T01:38:38.080Z,2.62
2017-12-25T01:41:05.303Z,2.50
2017-12-25T01:43:32.513Z,2.72
2017-12-25T01:45:59.741Z,4.20
2017-12-25T01:48:26.948Z,6.03
2017-12-25T01:50:54.168Z,6.37
2017-12-25T01:53:24.063Z,5.90
2017-12-25T01:55:51.275Z,6.10
2017-12-25T01:58:29.165Z,7.30
2017-12-25T02:00:58.284Z,7.25
2017-12-25T02:03:25.491Z,6.15
2017-12-25T02:06:01.331Z,6.80
2017-12-25T02:08:29.946Z,7.57
2017-12-25T02:10:57.165Z,7.65
2017-12-25T02:13:24.375Z,6.62
2017-12-25T02:15:51.600Z,6.22
2017-12-25T02:18:18.801Z,6.35
2017-12-25T02:20:46.019Z,7.07
2017-12-25T02:23:13.229Z,7.75
2017-12-25T02:25:40.456Z,7.15
2017-12-25T02:28:07.664Z,7.68
2017-12-25T02:30:34.894Z,7.28
2017-12-25T02:33:02.115Z,6.35
2017-12-25T02:35:29.325Z,10.13
2017-12-25T02:37:56.557Z,9.52
2017-12-25T02:40:23.773Z,10.60
2017-12-25T02:42:50.996Z,8.48
2017-12-25T02:45:18.207Z,7.85
2017-12-25T02:47:45.426Z,5.70
2017-12-25T02:50:12.636Z,4.43
2017-12-25T02:52:39.853Z,3.83
2017-12-25T02:55:07.063Z,3.95
2017-12-25T02:57:34.277Z,3.33
2017-12-25T03:00:01.491Z,3.83
2017-12-25T03:02:28.713Z,3.78
2017-12-25T03:04:55.918Z,3.53
2017-12-25T03:07:23.138Z,4.15
2017-12-25T03:09:50.343Z,4.30
2017-12-25T03:12:17.560Z,4.37
2017-12-25T03:14:44.772Z,4.05
2017-12-25T03:17:11.998Z,3.83
2017-12-25T03:19:39.212Z,3.67
2017-12-25T03:22:06.434Z,4.30
2017-12-25T03:24:33.639Z,3.65
2017-12-25T03:27:18.391Z,4.50
2017-12-25T03:29:45.604Z,3.47
2017-12-25T03:32:12.824Z,3.80
2017-12-25T03:34:40.037Z,4.20
2017-12-25T03:37:07.257Z,3.40
2017-12-25T03:39:34.467Z,3.75
2017-12-25T03:42:01.690Z,2.95
2017-12-25T03:44:28.908Z,3.10
2017-12-25T03:46:56.120Z,3.05
2017-12-25T03:49:23.344Z,3.22
2017-12-25T03:51:50.556Z,3.20
2017-12-25T03:54:17.779Z,3.65
2017-12-25T03:56:44.997Z,3.40
2017-12-25T03:59:12.207Z,3.47
2017-12-25T04:01:39.419Z,3.20
2017-12-25T04:04:06.652Z,3.30
2017-12-25T04:06:33.863Z,4.12
2017-12-25T04:09:01.075Z,4.15
2017-12-25T04:11:28.294Z,2.50
2017-12-25T04:13:55.512Z,3.35
2017-12-25T04:16:22.732Z,3.08
2017-12-25T04:18:49.959Z,3.80
2017-12-25T04:21:17.168Z,3.80
2017-12-25T04:23:44.393Z,3.03
2017-12-25T04:26:11.604Z,4.32
2017-12-25T04:28:38.824Z,3.70
2017-12-25T04:31:06.041Z,3.72
2017-12-25T04:33:33.252Z,5.10
2017-12-25T04:36:00.462Z,3.40
2017-12-25T04:38:27.691Z,3.60
2017-12-25T04:40:54.905Z,3.35
2017-12-25T04:43:22.141Z,3.67
2017-12-25T04:45:49.345Z,3.75
2017-12-25T04:48:16.572Z,3.90
2017-12-25T04:50:43.792Z,3.28
2017-12-25T04:53:11.004Z,3.03
2017-12-25T04:55:38.215Z,3.30
2017-12-25T04:58:05.437Z,3.20
2017-12-25T05:00:32.651Z,3.37
2017-12-25T05:03:00.719Z,3.70
2017-12-25T05:05:27.937Z,4.25
2017-12-25T05:07:55.154Z,3.70
2017-12-25T05:10:22.383Z,3.50
2017-12-25T05:12:49.591Z,3.60
2017-12-25T05:15:16.808Z,4.18
2017-12-25T05:17:44.024Z,3.45
2017-12-25T05:20:11.243Z,3.53
2017-12-25T05:22:38.453Z,2.53
2017-12-25T05:25:05.668Z,3.53
2017-12-25T05:27:32.880Z,3.62
2017-12-25T05:30:00.101Z,3.17
2017-12-25T05:32:27.307Z,2.70
2017-12-25T05:34:54.539Z,3.20
2017-12-25T05:37:21.750Z,3.85
2017-12-25T05:39:48.968Z,3.58
2017-12-25T05:42:16.198Z,3.10
2017-12-25T05:44:43.422Z,3.22
2017-12-25T05:47:10.633Z,3.85
2017-12-25T05:49:37.865Z,3.53
2017-12-25T05:52:05.072Z,3.55
2017-12-25T05:54:32.316Z,2.90
2017-12-25T05:56:59.530Z,3.10
2017-12-25T05:59:26.740Z,3.70
2017-12-25T06:01:53.961Z,3.10
2017-12-25T06:04:21.170Z,3.35
2017-12-25T06:06:48.405Z,3.90
2017-12-25T06:09:15.618Z,3.35
2017-12-25T06:11:42.832Z,3.60
2017-12-25T06:14:10.076Z,3.80
2017-12-25T06:16:37.307Z,4.05
2017-12-25T06:19:04.521Z,3.47
2017-12-25T06:21:31.741Z,3.45
2017-12-25T06:23:59.844Z,3.15
2017-12-25T06:26:27.072Z,3.65
2017-12-25T06:28:54.278Z,3.62
2017-12-25T06:31:21.496Z,3.30
2017-12-25T06:33:48.713Z,4.00
2017-12-25T06:36:15.928Z,3.78
2017-12-25T06:38:43.139Z,3.92
2017-12-25T06:41:10.360Z,4.40
2017-12-25T06:43:37.581Z,4.18
2017-12-25T06:46:04.796Z,4.57
2017-12-25T06:48:32.013Z,4.93
2017-12-25T06:50:59.240Z,4.40
2017-12-25T06:53:26.445Z,4.20
2017-12-25T06:55:53.667Z,5.10
2017-12-25T06:58:20.881Z,5.03
2017-12-25T07:00:48.108Z,4.53
2017-12-25T07:03:15.317Z,4.55
2017-12-25T07:05:42.564Z,4.12
2017-12-25T07:08:09.773Z,5.50
2017-12-25T07:10:36.988Z,6.40
2017-12-25T07:13:04.209Z,5.40
2017-12-25T07:15:31.424Z,5.00
2017-12-25T07:17:58.644Z,4.65
2017-12-25T07:20:25.864Z,5.15
2017-12-25T07:22:53.085Z,4.60
2017-12-25T07:25:20.302Z,5.22
2017-12-25T07:27:47.524Z,5.22
2017-12-25T07:30:14.737Z,5.82
2017-12-25T07:32:41.960Z,5.12
2017-12-25T07:35:09.181Z,6.35
2017-12-25T07:37:36.404Z,5.37
2017-12-25T07:40:03.621Z,5.43
2017-12-25T07:42:30.846Z,5.22
2017-12-25T07:44:58.057Z,5.93
2017-12-25T07:47:25.291Z,6.25
2017-12-25T07:49:52.505Z,6.80
2017-12-25T07:52:19.733Z,5.37
2017-12-25T07:54:46.949Z,6.55
2017-12-25T07:57:14.172Z,6.05
2017-12-25T07:59:41.384Z,6.35
2017-12-25T08:02:08.611Z,7.82
2017-12-25T08:04:35.825Z,6.10
2017-12-25T08:07:03.061Z,6.30
2017-12-25T08:09:30.265Z,6.60
2017-12-25T08:11:57.491Z,6.40
2017-12-25T08:14:24.709Z,4.45
2017-12-25T08:16:51.928Z,5.40
2017-12-25T08:19:19.149Z,6.90
2017-12-25T08:21:46.370Z,5.00
2017-12-25T08:24:13.589Z,6.12
2017-12-25T08:26:40.810Z,5.80
2017-12-25T08:29:08.029Z,5.37
2017-12-25T08:31:35.245Z,5.97
2017-12-25T08:34:02.465Z,6.03
2017-12-25T08:36:29.684Z,5.47
2017-12-25T08:38:56.901Z,6.55
2017-12-25T08:41:24.118Z,5.40
2017-12-25T08:43:51.842Z,5.75
2017-12-25T08:46:19.056Z,6.22
2017-12-25T08:48:46.277Z,6.12
2017-12-25T08:51:13.485Z,6.22
2017-12-25T08:53:40.712Z,6.10
2017-12-25T08:56:07.937Z,5.80
2017-12-25T08:58:35.166Z,7.60
2017-12-25T09:01:02.368Z,5.90
2017-12-25T09:03:29.621Z,6.40
2017-12-25T09:05:56.828Z,6.05
2017-12-25T09:08:24.057Z,4.75
2017-12-25T09:10:51.264Z,4.40
2017-12-25T09:13:18.483Z,6.20
2017-12-25T09:15:45.691Z,7.80
2017-12-25T09:18:12.916Z,6.28
2017-12-25T09:20:40.130Z,6.97
2017-12-25T09:23:07.341Z,6.68
2017-12-25T09:25:34.575Z,6.65
2017-12-25T09:28:01.814Z,7.72
2017-12-25T09:30:29.030Z,7.50
2017-12-25T09:32:56.243Z,7.85
2017-12-25T09:35:23.471Z,6.97
2017-12-25T09:37:50.687Z,5.80
2017-12-25T09:40:17.922Z,6.40
2017-12-25T09:42:45.125Z,7.80
2017-12-25T09:45:12.358Z,7.47
2017-12-25T09:47:39.568Z,7.70
2017-12-25T09:50:06.792Z,8.57
2017-12-25T09:52:34.017Z,9.10
2017-12-25T09:55:01.239Z,8.80
2017-12-25T09:57:28.452Z,8.35
2017-12-25T09:59:55.679Z,8.82
2017-12-25T10:02:22.902Z,8.10
2017-12-25T10:04:50.124Z,9.38
2017-12-25T10:07:17.332Z,7.47
2017-12-25T10:09:44.561Z,8.93
2017-12-25T10:12:11.780Z,8.77
2017-12-25T10:14:39.008Z,8.23
2017-12-25T10:17:06.231Z,8.35
2017-12-25T10:19:33.452Z,8.38
2017-12-25T10:22:00.666Z,7.37
2017-12-25T10:24:27.892Z,7.05
2017-12-25T10:26:55.112Z,7.97
2017-12-25T10:29:22.345Z,8.07
2017-12-25T10:31:49.559Z,6.85
2017-12-25T10:34:16.772Z,7.47
2017-12-25T10:36:43.996Z,7.18
2017-12-25T10:39:11.222Z,7.47
2017-12-25T10:41:38.453Z,8.27
2017-12-25T10:44:05.665Z,9.13
2017-12-25T10:46:32.893Z,6.90
2017-12-25T10:49:00.120Z,8.57
2017-12-25T10:51:27.332Z,9.70
2017-12-25T10:53:54.556Z,8.77
2017-12-25T10:56:21.781Z,6.97
2017-12-25T10:58:48.989Z,7.05
2017-12-25T11:01:16.207Z,7.03
2017-12-25T11:03:43.429Z,8.00
2017-12-25T11:06:10.651Z,8.25
2017-12-25T11:08:37.880Z,8.07
2017-12-25T11:11:05.098Z,7.25
2017-12-25T11:13:32.309Z,6.50
2017-12-25T11:15:59.533Z,6.32
2017-12-25T11:18:26.759Z,7.68
2017-12-25T11:20:53.990Z,7.45
2017-12-25T11:23:21.197Z,7.35
2017-12-25T11:25:48.416Z,7.87
2017-12-25T11:28:15.628Z,8.25
2017-12-25T11:30:42.857Z,8.85
2017-12-25T11:33:10.085Z,7.15
2017-12-25T11:35:37.338Z,7.57
2017-12-25T11:38:04.544Z,6.55
2017-12-25T11:40:31.764Z,7.60
2017-12-25T11:42:58.984Z,7.90
2017-12-25T11:45:26.205Z,7.85
2017-12-25T11:47:53.421Z,8.68
2017-12-25T11:50:20.632Z,8.25
2017-12-25T11:52:47.872Z,7.60
2017-12-25T11:55:15.080Z,9.40
2017-12-25T11:57:42.317Z,7.30
2017-12-25T12:00:09.537Z,7.75
2017-12-25T12:02:36.765Z,7.55
2017-12-25T12:05:03.985Z,8.70
2017-12-25T12:07:31.216Z,8.18
2017-12-25T12:09:58.434Z,8.98
2017-12-25T12:12:25.653Z,7.45
2017-12-25T12:14:52.878Z,8.27
2017-12-25T12:17:20.107Z,9.02
2017-12-25T12:19:47.316Z,7.25
2017-12-25T12:22:14.544Z,8.25
2017-12-25T12:24:41.753Z,7.40
2017-12-25T12:27:08.980Z,7.55
2017-12-25T12:29:36.192Z,8.02
2017-12-25T12:32:03.412Z,7.75
2017-12-25T12:34:30.623Z,7.65
2017-12-25T12:36:57.862Z,6.60
2017-12-25T12:39:25.065Z,7.70
2017-12-25T12:41:52.281Z,7.07
2017-12-25T12:44:19.506Z,6.32
2017-12-25T12:46:46.731Z,8.73
2017-12-25T12:49:13.946Z,8.00
2017-12-25T12:51:41.166Z,8.18
2017-12-25T12:54:08.397Z,8.32
2017-12-25T12:56:35.618Z,9.73
2017-12-25T12:59:02.836Z,7.95
2017-12-25T13:01:30.057Z,8.52
2017-12-25T13:03:57.284Z,8.23
2017-12-25T13:06:24.489Z,8.27
2017-12-25T13:08:51.704Z,7.82
2017-12-25T13:11:18.927Z,8.55
2017-12-25T13:13:46.146Z,8.50
2017-12-25T13:16:13.361Z,7.32
2017-12-25T13:18:40.584Z,7.68
2017-12-25T13:21:07.801Z,7.72
2017-12-25T13:23:35.035Z,9.02
2017-12-25T13:26:02.241Z,7.85
2017-12-25T13:28:29.460Z,7.25
2017-12-25T13:30:56.684Z,7.35
2017-12-25T13:33:23.913Z,8.05
2017-12-25T13:35:51.128Z,7.68
2017-12-25T13:38:18.360Z,6.78
2017-12-25T13:40:45.577Z,5.70
2017-12-25T13:43:12.806Z,8.27
2017-12-25T13:45:40.020Z,7.10
2017-12-25T13:48:07.232Z,6.43
2017-12-25T13:50:34.505Z,6.53
2017-12-25T13:53:01.676Z,6.53
2017-12-25T13:55:28.901Z,6.60
2017-12-25T13:57:56.112Z,8.02
2017-12-25T14:00:23.341Z,8.40
2017-12-25T14:02:50.564Z,7.50
2017-12-25T14:05:17.792Z,7.20
2017-12-25T14:07:45.004Z,8.63
2017-12-25T14:10:12.245Z,7.55
2017-12-25T14:12:39.457Z,8.20
2017-12-25T14:15:06.677Z,8.07
2017-12-25T14:17:33.896Z,9.18
2017-12-25T14:20:01.129Z,7.80
2017-12-25T14:22:28.341Z,7.55
2017-12-25T14:24:55.563Z,8.40
2017-12-25T14:27:22.779Z,9.20
2017-12-25T14:29:50.002Z,8.60
2017-12-25T14:32:17.225Z,8.93
2017-12-25T14:34:44.452Z,8.93
2017-12-25T14:37:11.674Z,8.48
2017-12-25T14:39:38.896Z,8.23
2017-12-25T14:42:06.116Z,9.15
2017-12-25T14:44:33.342Z,8.80
2017-12-25T14:47:00.556Z,9.93
2017-12-25T14:49:27.785Z,9.35
2017-12-25T14:51:54.984Z,8.30
2017-12-25T14:54:22.205Z,10.55
2017-12-25T14:56:49.441Z,10.80
2017-12-25T14:59:16.669Z,11.75
2017-12-25T15:01:43.905Z,8.55
2017-12-25T15:04:11.124Z,9.18
2017-12-25T15:06:38.352Z,7.93
2017-12-25T15:09:05.575Z,9.13
2017-12-25T15:11:32.798Z,9.13
2017-12-25T15:14:00.022Z,9.05
2017-12-25T15:16:27.254Z,9.10
2017-12-25T15:18:54.470Z,8.55
2017-12-25T15:21:21.697Z,9.18
2017-12-25T15:23:48.924Z,8.30
2017-12-25T15:26:16.141Z,9.85
2017-12-25T15:28:43.353Z,9.57
2017-12-25T15:31:10.587Z,10.40
2017-12-25T15:33:37.807Z,9.80
2017-12-25T15:36:05.029Z,9.32
2017-12-25T15:38:32.256Z,8.60
2017-12-25T15:40:59.493Z,9.80
2017-12-25T15:43:26.720Z,9.40
2017-12-25T15:45:53.936Z,9.15
2017-12-25T15:48:21.152Z,8.85
2017-12-25T15:50:48.368Z,9.52
2017-12-25T15:53:15.604Z,10.52
2017-12-25T15:55:42.834Z,10.15
2017-12-25T15:58:10.056Z,11.10
2017-12-25T16:00:37.277Z,12.77
2017-12-25T16:03:04.504Z,13.95
2017-12-25T16:05:31.729Z,13.05
2017-12-25T16:07:58.977Z,12.63
2017-12-25T16:10:26.203Z,14.00
2017-12-25T16:12:53.432Z,12.32
2017-12-25T16:15:20.649Z,16.67
2017-12-25T16:17:47.877Z,15.35
2017-12-25T16:20:15.108Z,13.05
2017-12-25T16:22:42.340Z,17.58
2017-12-25T16:25:09.560Z,16.17
2017-12-25T16:27:36.792Z,14.60
2017-12-25T16:30:04.043Z,26.95
2017-12-25T16:32:31.257Z,41.13
2017-12-25T16:34:58.486Z,21.05
2017-12-25T16:37:25.724Z,22.98
2017-12-25T16:39:52.949Z,26.02
2017-12-25T16:42:20.172Z,18.95
2017-12-25T16:44:47.395Z,17.70
2017-12-25T16:47:14.627Z,16.45
2017-12-25T16:49:41.844Z,14.80
2017-12-25T16:52:09.072Z,15.60
2017-12-25T16:54:36.288Z,14.63
2017-12-25T16:57:03.512Z,16.60
2017-12-25T16:59:30.729Z,15.88
2017-12-25T17:01:57.980Z,20.08
2017-12-25T17:04:25.211Z,20.67
2017-12-25T17:06:52.443Z,22.77
2017-12-25T17:09:19.666Z,19.35
2017-12-25T17:11:46.884Z,19.05
2017-12-25T17:14:14.136Z,21.42
2017-12-25T17:16:41.348Z,20.67
2017-12-25T17:19:08.577Z,17.98
2017-12-25T17:21:35.800Z,18.92
2017-12-25T17:24:03.027Z,16.42
2017-12-25T17:26:30.245Z,14.13
2017-12-25T17:28:57.477Z,13.80
2017-12-25T17:31:24.698Z,15.05
2017-12-25T17:33:51.934Z,13.60
2017-12-25T17:36:19.151Z,16.40
2017-12-25T17:38:46.378Z,17.65
2017-12-25T17:41:13.596Z,18.67
2017-12-25T17:43:40.824Z,21.15
2017-12-25T17:46:08.046Z,20.30
2017-12-25T17:48:35.277Z,19.67
2017-12-25T17:51:02.499Z,19.62
2017-12-25T17:53:29.728Z,20.85
2017-12-25T17:55:56.946Z,21.87
2017-12-25T17:58:24.173Z,23.60
2017-12-25T18:00:51.393Z,24.10
2017-12-25T18:03:18.622Z,25.08
2017-12-25T18:05:45.842Z,24.33
2017-12-25T18:08:13.070Z,23.90
2017-12-25T18:10:40.288Z,23.05
2017-12-25T18:13:07.524Z,23.62
2017-12-25T18:15:34.741Z,26.58
2017-12-25T18:18:01.965Z,28.90
2017-12-25T18:20:29.191Z,26.25
2017-12-25T18:22:56.412Z,35.85
2017-12-25T18:25:23.641Z,34.35
2017-12-25T18:27:50.864Z,31.90
2017-12-25T18:30:18.097Z,20.75
2017-12-25T18:32:45.308Z,24.33
2017-12-25T18:37:46.054Z,25.15
2017-12-25T18:40:13.285Z,25.30
2017-12-25T18:42:40.544Z,27.15
2017-12-25T18:45:07.742Z,31.55
2017-12-25T18:47:34.965Z,27.60
2017-12-25T18:50:02.192Z,28.77
2017-12-25T18:52:29.418Z,27.70
2017-12-25T18:54:56.648Z,25.83
2017-12-25T18:57:23.868Z,27.85
2017-12-25T18:59:51.100Z,27.83
2017-12-25T19:02:18.321Z,26.05
2017-12-25T19:04:45.557Z,34.65
2017-12-25T19:07:12.828Z,36.90
2017-12-25T19:09:40.096Z,39.95
2017-12-25T19:12:07.308Z,32.42
2017-12-25T19:14:34.588Z,39.13
2017-12-25T19:17:01.802Z,32.95
2017-12-25T19:19:29.084Z,34.28
2017-12-25T19:21:56.343Z,31.50
2017-12-25T19:24:23.575Z,32.95
2017-12-25T19:26:50.849Z,33.63
2017-12-25T19:29:18.111Z,32.17
2017-12-25T19:31:45.330Z,31.77
2017-12-25T19:34:12.590Z,35.10
2017-12-25T19:36:39.857Z,31.15
2017-12-25T19:39:07.111Z,26.98
2017-12-25T19:41:34.385Z,23.27
2017-12-25T19:44:01.641Z,21.83
2017-12-25T19:46:28.917Z,27.33
2017-12-25T19:48:56.179Z,29.00
2017-12-25T19:51:23.444Z,26.23
2017-12-25T19:53:50.712Z,24.23
2017-12-25T19:56:17.937Z,24.33
2017-12-25T19:58:45.208Z,23.35
2017-12-25T20:01:12.424Z,25.60
2017-12-25T20:03:39.704Z,25.33
2017-12-25T20:06:06.920Z,25.20
2017-12-25T20:08:34.204Z,34.10
2017-12-25T20:11:01.499Z,49.78
2017-12-25T20:13:28.751Z,42.10
2017-12-25T20:15:56.035Z,37.05
2017-12-25T20:18:23.302Z,36.95
2017-12-25T20:20:50.571Z,40.45
2017-12-25T20:23:17.780Z,42.72
2017-12-25T20:25:45.072Z,39.03
2017-12-25T20:28:12.280Z,37.10
2017-12-25T20:30:39.556Z,36.83
2017-12-25T20:33:06.818Z,31.65
2017-12-25T20:35:34.076Z,34.35
2017-12-25T20:38:01.309Z,31.23
2017-12-25T20:40:28.571Z,30.30
2017-12-25T20:42:55.840Z,32.75
2017-12-25T20:45:23.107Z,31.77
2017-12-25T20:47:50.387Z,31.52
2017-12-25T20:50:17.776Z,31.12
2017-12-25T20:52:45.058Z,31.77
2017-12-25T20:55:12.328Z,30.02
2017-12-25T20:57:39.552Z,28.75
2017-12-25T21:00:06.833Z,26.42
2017-12-25T21:02:34.090Z,31.00
2017-12-25T21:05:01.325Z,29.87
2017-12-25T21:07:28.626Z,28.40
2017-12-25T21:09:55.888Z,31.05
2017-12-25T21:12:23.151Z,33.50
2017-12-25T21:14:50.366Z,31.27
2017-12-25T21:17:17.599Z,29.83
2017-12-25T21:19:44.827Z,28.52
2017-12-25T21:22:12.131Z,31.30
2017-12-25T21:24:39.444Z,34.03
2017-12-25T21:27:06.714Z,34.10
2017-12-25T21:29:33.990Z,33.80
2017-12-25T21:32:01.260Z,35.85
2017-12-25T21:34:28.496Z,39.80
2017-12-25T21:36:56.692Z,37.60
2017-12-25T21:39:23.923Z,42.30
2017-12-25T21:41:51.208Z,40.15
2017-12-25T21:44:18.438Z,41.45
2017-12-25T21:46:45.688Z,38.33
2017-12-25T21:49:12.967Z,39.97
2017-12-25T21:51:40.241Z,33.45
2017-12-25T21:54:07.523Z,34.45
2017-12-25T21:56:34.784Z,37.78
2017-12-25T21:59:02.022Z,37.17
2017-12-25T22:02:40.960Z,35.08
2017-12-25T22:05:08.229Z,38.80
2017-12-25T22:07:35.524Z,35.65
2017-12-25T22:10:02.780Z,37.20
2017-12-25T22:12:30.043Z,35.95
2017-12-25T22:14:57.316Z,39.15
2017-12-25T22:17:24.531Z,40.33
2017-12-25T22:19:51.832Z,41.35
2017-12-25T22:22:19.096Z,50.67
2017-12-25T22:24:46.370Z,50.08
2017-12-25T22:27:13.631Z,39.45
2017-12-25T22:29:40.849Z,35.08
2017-12-25T22:32:08.126Z,29.05
2017-12-25T22:34:35.401Z,34.80
2017-12-25T22:37:02.663Z,34.85
2017-12-25T22:39:29.931Z,35.70
2017-12-25T22:41:57.196Z,35.53
2017-12-25T22:44:24.466Z,36.35
2017-12-25T22:46:51.724Z,36.67
2017-12-25T22:49:18.992Z,34.67
2017-12-25T22:51:46.247Z,31.12
2017-12-25T22:54:13.526Z,32.65
2017-12-25T22:56:40.794Z,29.75
2017-12-25T22:59:08.067Z,28.85
2017-12-25T23:01:35.323Z,33.83
2017-12-25T23:04:02.596Z,31.75
2017-12-25T23:06:29.850Z,25.83
2017-12-25T23:08:57.127Z,28.40
2017-12-25T23:11:24.388Z,28.25
2017-12-25T23:13:51.658Z,27.80
2017-12-25T23:16:18.916Z,27.42
2017-12-25T23:18:46.198Z,37.03
2017-12-25T23:21:13.448Z,33.38
2017-12-25T23:23:40.703Z,29.55
2017-12-25T23:26:07.921Z,28.90
2017-12-25T23:28:35.191Z,29.15
2017-12-25T23:31:02.450Z,26.35
2017-12-25T23:33:29.703Z,27.00
2017-12-25T23:35:56.966Z,24.20
2017-12-25T23:38:24.231Z,23.65
2017-12-25T23:40:51.505Z,25.60
2017-12-25T23:43:18.761Z,23.00
2017-12-25T23:45:46.030Z,22.10
2017-12-25T23:48:13.282Z,21.20
2017-12-25T23:50:40.501Z,22.45
2017-12-25T23:53:07.772Z,21.90
2017-12-25T23:55:34.989Z,22.17
2017-12-25T23:58:02.217Z,21.62
